Hauptseite
METAR-TAF:

METAR-TAF

Flughäfen :

Flughafen Inverness

Inverness, Schottland

Breite: 57-32N, Länge: 004-03W, Höhe: 9 m

Beobachtung

Neuester Wetterbericht von vor 21 Minuten, um 21:20 UTC
Wind 5 kt aus Süd/Südwest
Temperatur 14°C
Luftfeuchtigkeit 77%
Luftdruck 1012 hPa
Sichtweite 10 km oder mehr
Leicht bewölkt in der Höhe von 2000 ft

METAR: EGPE 162120Z 21005KT 9999 FEW020 14/10 Q1012

Zeit: 22:41 (21:41 UTC)

Prognose

Neuester Wetterbericht von vor 1 Stunde und 45 Minuten, um 19:56 UTC
Gültige Prognose vom 16 um 21 UTC bis 17 um 06 UTC
Wind 7 kt aus West/Südwest
Sichtweite 10 km oder mehr
Leicht bewölkt in der Höhe von 2500 ft

TAF: EGPE 161956Z 1621/1706 24007KT 9999 FEW025

Wetterbeobachtungen und Prognosen von mehr als 4000 Flughäfen (METAR und TAF Bericht).

Die verfügbaren Stationen werden durch gelbe und rote Markierungen auf der Karte dargestellt.

Führen Sie die Maus auf sie, um den Namen der Station zu sehen.

Darauf klicken, um die Beobachtung von Wetterbeobachtungen und Prognosen zu sehen.

Um die Karte zu ändern : klicken Sie auf den grünen Tasten mit einem schwarzen Kreuz Zum Vergrößern, auf den grünen Button mit einem Gedankenstrich zu verkleinern, oder auf die grünen Pfeile für benachbarte Karten.


METAR-TAF: